Latest Weather Observations for Samuel Hill

IDQ60801

Issued at 10:32 am EST Tuesday 7 December 2021 (issued every 10 minutes, with the page automatically refreshed every 10 minutes)

About weather observations | Map of weather stations | Latest weather observations for QLD | Other Formats
Station Details ID: 033308 Name: SAMUEL HILL AERO Lat: -22.74 Lon: 150.66 Height: 31.0 m
Data from the previous 72 hours. | See also: Recent months at Samuel Hill
Date/Time
EST
Temp
°C
App
Temp
°C
Dew
Point
°C
Rel
Hum
%
Delta-T
°C
Wind Press
QNH
hPa
Press
MSL
hPa
Rain since
9am
mm
Dir  Spd
km/h
Gust
km/h
Spd
kts
Gust
kts
07/10:30am 28.2 29.4 20.7 63 5.0 E 15 20 8 11 1012.3 1012.1 0.0
07/10:00am 27.5 28.4 20.8 67 4.4 ESE 17 24 9 13 1012.5 1012.3 0.0
07/09:30am 28.4 30.0 21.4 66 4.7 ESE 15 24 8 13 1012.9 1012.7 0.0
07/09:00am 27.1 28.4 20.9 69 4.1 ESE 15 24 8 13 1013.2 1013.0 1.0
07/08:30am 27.4 28.4 21.0 68 4.2 ESE 17 26 9 14 1013.3 1013.1 1.0
07/08:00am 26.6 28.0 21.1 72 3.6 ESE 15 20 8 11 1013.3 1013.1 1.0
07/07:30am 26.9 28.5 21.4 72 3.7 ESE 15 20 8 11 1013.0 1012.8 1.0
07/07:00am 26.2 30.0 22.7 81 2.4 SE 7 17 4 9 1013.0 1012.8 1.0
07/06:30am 23.1 26.9 22.8 98 0.2 SSE 7 9 4 5 1012.9 1012.7 1.0
07/06:00am 21.7 26.3 21.7 100 0.0 CALM 0 0 0 0 1012.8 1012.6 1.0
07/05:30am 21.2 24.6 21.0 99 0.1 S 4 6 2 3 1012.4 1012.2 1.0
07/05:00am 21.3 24.4 21.1 99 0.1 SW 6 9 3 5 1012.2 1012.0 1.0
07/04:30am 21.6 25.6 21.4 99 0.1 WSW 2 6 1 3 1011.9 1011.7 1.0
07/04:00am 21.8 24.5 21.3 97 0.3 SE 9 11 5 6 1011.5 1011.3 1.0
07/03:30am 21.8 26.3 21.6 99 0.1 CALM 0 0 0 0 1011.6 1011.4 1.0
07/03:00am 22.3 25.8 21.8 97 0.3 SE 6 7 3 4 1011.5 1011.3 1.0
07/02:30am 22.7 25.9 21.7 94 0.7 SE 7 13 4 7 1011.4 1011.2 1.0
07/02:00am 22.8 25.7 21.1 90 1.1 SSE 7 11 4 6 1011.6 1011.4 0.2
07/01:30am 22.7 25.2 21.0 90 1.1 SSE 9 15 5 8 1011.8 1011.6 0.2
07/01:00am 22.9 25.7 20.8 88 1.4 S 7 11 4 6 1012.1 1011.9 0.2
07/12:30am 22.7 25.3 20.4 87 1.5 SSE 7 9 4 5 1012.2 1012.0 0.2
07/12:00am 23.0 25.6 20.5 86 1.6 SE 7 9 4 5 1012.4 1012.2 0.2
 
Date/Time
EST
Temp
°C
App
Temp
°C
Dew
Point
°C
Rel
Hum
%
Delta-T
°C
Wind Press
QNH
hPa
Press
MSL
hPa
Rain since
9am
mm
Dir  Spd
km/h
Gust
km/h
Spd
kts
Gust
kts
06/11:30pm 23.1 25.8 20.6 86 1.6 SSE 7 11 4 6 1012.7 1012.5 0.2
06/11:00pm 23.5 26.3 20.8 85 1.8 SSE 7 9 4 5 1013.0 1012.8 0.2
06/10:30pm 23.7 26.5 20.8 84 1.9 ESE 7 9 4 5 1013.0 1012.8 0.2
06/10:00pm 23.9 26.3 20.8 83 2.0 SE 9 13 5 7 1013.0 1012.8 0.2
06/09:30pm 23.2 26.2 21.3 89 1.2 ESE 7 11 4 6 1013.0 1012.8 0.2
06/09:00pm 23.1 26.2 21.4 90 1.1 SSE 7 9 4 5 1012.7 1012.5 0.2
06/08:30pm 23.4 26.6 21.7 90 1.1 SSE 7 9 4 5 1012.4 1012.2 0.2
06/08:00pm 23.6 26.9 21.5 88 1.4 SSE 6 9 3 5 1012.2 1012.0 0.2
06/07:30pm 24.1 27.2 21.4 85 1.8 SSE 7 9 4 5 1012.1 1011.9 0.2
06/07:00pm 24.7 27.7 21.2 81 2.3 SSE 7 9 4 5 1011.8 1011.6 0.2
06/06:30pm 25.2 27.9 21.3 79 2.6 ESE 9 13 5 7 1011.3 1011.1 0.2
06/06:00pm 25.8 27.9 21.0 75 3.2 ESE 11 20 6 11 1010.8 1010.6 0.2
06/05:30pm 26.6 27.5 20.9 71 3.8 ESE 17 24 9 13 1010.5 1010.3 0.2
06/05:00pm 26.6 27.4 20.7 70 3.9 E 17 26 9 14 1010.4 1010.2 0.2
06/04:30pm 27.5 28.7 21.5 70 4.0 E 17 26 9 14 1010.2 1010.0 0.2
06/04:00pm 27.7 28.2 20.8 66 4.6 ESE 19 28 10 15 1010.2 1010.0 0.2
06/03:30pm 28.1 28.9 21.4 67 4.5 ESE 19 28 10 15 1010.5 1010.3 0.2
06/03:00pm 28.3 29.3 21.8 68 4.4 ESE 19 30 10 16 1010.7 1010.5 0.2
06/02:30pm 27.0 27.3 20.8 69 4.1 ESE 20 32 11 17 1010.9 1010.7 0.2
06/02:00pm 27.1 29.2 22.5 76 3.1 ESE 15 28 8 15 1011.1 1010.9 0.2
06/01:30pm 25.3 28.8 23.5 90 1.2 ESE 11 17 6 9 1011.6 1011.4 0.2
06/01:19pm 25.2 28.1 23.1 88 1.4 E 13 19 7 10 1011.7 1011.5 0.0
06/01:06pm 25.1 27.4 23.5 91 1.1 SE 17 26 9 14 1011.7 1011.5 0.0
06/01:00pm 24.9 26.2 22.6 87 1.5 SE 20 30 11 16 1011.7 1011.5 0.0
06/12:30pm 28.6 29.2 20.3 60 5.5 SE 17 32 9 17 1011.6 1011.4 0.0
06/12:00pm 28.2 28.3 21.2 65 4.7 SE 22 33 12 18 1011.7 1011.5 0.0
06/11:30am 28.6 29.1 21.1 64 5.0 SE 20 32 11 17 1011.9 1011.7 0.0
06/11:00am 28.7 29.1 21.0 63 5.1 SE 20 33 11 18 1011.9 1011.7 0.0
06/10:30am 28.0 28.9 20.8 65 4.8 ESE 17 26 9 14 1012.1 1011.9 0.0
06/10:00am 28.5 29.5 21.0 64 5.0 ESE 17 28 9 15 1012.3 1012.1 0.0
06/09:30am 27.6 27.5 19.9 63 5.0 ESE 20 32 11 17 1012.5 1012.3 0.0
06/09:00am 27.9 27.9 20.2 63 5.1 ESE 20 32 11 17 1012.5 1012.3 0.0
06/08:30am 27.2 27.8 21.0 69 4.1 E 19 26 10 14 1012.5 1012.3 0.0
06/08:00am 27.2 27.9 20.5 67 4.4 ESE 17 24 9 13 1012.6 1012.4 0.0
06/07:30am 26.6 27.1 20.0 67 4.3 ESE 17 30 9 16 1012.4 1012.2 0.0
06/07:00am 27.2 28.3 20.5 67 4.4 ESE 15 24 8 13 1012.2 1012.0 0.0
06/06:30am 25.9 27.2 20.2 71 3.7 ESE 13 20 7 11 1012.0 1011.8 0.0
06/06:00am 25.3 27.7 20.1 73 3.4 ESE 7 13 4 7 1011.6 1011.4 0.0
06/05:30am 24.2 26.4 19.7 76 2.9 ESE 7 11 4 6 1011.4 1011.2 0.0
06/05:00am 24.2 25.6 19.5 75 3.0 E 11 17 6 9 1011.0 1010.8 0.0
06/04:30am 24.5 26.2 19.3 73 3.3 ESE 9 17 5 9 1010.8 1010.6 0.0
06/04:00am 24.7 25.5 19.8 74 3.2 ESE 15 24 8 13 1010.6 1010.4 0.0
06/03:30am 24.6 27.0 20.9 80 2.4 ESE 9 15 5 8 1010.2 1010.0 0.0
06/03:00am 24.5 26.7 20.4 78 2.7 ESE 9 15 5 8 1010.4 1010.2 0.0
06/02:30am 24.3 26.7 20.8 81 2.3 ESE 9 13 5 7 1010.6 1010.4 0.0
06/02:00am 24.4 26.6 20.5 79 2.5 ESE 9 15 5 8 1010.7 1010.5 0.0
06/01:30am 24.5 27.1 20.4 78 2.7 ESE 7 13 4 7 1011.0 1010.8 0.0
06/01:00am 24.7 26.6 20.6 78 2.7 ESE 11 17 6 9 1011.2 1011.0 0.0
06/12:30am 24.7 26.7 20.8 79 2.6 E 11 17 6 9 1011.2 1011.0 0.0
06/12:00am 24.6 26.6 20.7 79 2.6 E 11 19 6 10 1011.4 1011.2 0.0
 
Date/Time
EST
Temp
°C
App
Temp
°C
Dew
Point
°C
Rel
Hum
%
Delta-T
°C
Wind Press
QNH
hPa
Press
MSL
hPa
Rain since
9am
mm
Dir  Spd
km/h
Gust
km/h
Spd
kts
Gust
kts
05/11:30pm 24.5 27.0 21.0 81 2.3 ESE 9 17 5 9 1012.2 1012.0 0.0
05/11:00pm 24.8 27.1 20.7 78 2.7 ESE 9 13 5 7 1012.5 1012.3 0.0
05/10:30pm 24.5 27.1 20.4 78 2.7 SE 7 11 4 6 1012.3 1012.1 0.0
05/10:00pm 24.7 26.8 20.2 76 2.9 ESE 9 19 5 10 1012.1 1011.9 0.0
05/09:30pm 24.6 27.0 20.1 76 2.9 SE 7 11 4 6 1012.1 1011.9 0.0
05/09:00pm 24.4 26.6 20.3 78 2.7 E 9 17 5 9 1011.5 1011.3 0.0
05/08:30pm 24.6 27.1 20.3 77 2.8 E 7 11 4 6 1011.7 1011.5 0.0
05/08:00pm 24.8 26.9 20.1 75 3.1 E 9 13 5 7 1011.4 1011.2 0.0
05/07:30pm 25.2 26.4 19.8 72 3.5 ESE 13 17 7 9 1011.3 1011.1 0.0
05/07:00pm 25.5 26.2 19.6 70 3.8 ESE 15 26 8 14 1011.3 1011.1 0.0
05/06:30pm 25.5 26.8 20.1 72 3.5 ESE 13 20 7 11 1010.9 1010.7 0.0
05/06:00pm 25.9 26.1 20.2 71 3.7 ESE 19 30 10 16 1010.2 1010.0 0.0
05/05:30pm 26.6 27.4 21.4 73 3.5 ESE 19 28 10 15 1009.9 1009.7 0.0
05/05:00pm 27.2 27.8 20.3 66 4.5 ESE 17 28 9 15 1009.6 1009.4 0.0
05/04:30pm 28.2 28.8 21.0 65 4.8 ESE 19 26 10 14 1009.4 1009.2 0.0
05/04:00pm 28.5 30.0 21.3 65 4.8 ESE 15 28 8 15 1009.2 1009.0 0.0
05/03:30pm 28.5 28.8 20.5 62 5.3 ESE 19 30 10 16 1009.4 1009.2 0.0
05/03:00pm 28.8 29.7 21.6 65 4.8 SE 19 26 10 14 1009.6 1009.4 0.0
05/02:30pm 28.5 29.9 21.8 67 4.5 SE 17 35 9 19 1009.7 1009.5 0.0
05/02:00pm 28.3 28.2 20.8 63 5.0 ESE 22 35 12 19 1010.0 1009.8 0.0
05/01:30pm 29.3 30.1 21.3 62 5.4 ESE 19 32 10 17 1010.2 1010.0 0.0
05/01:00pm 29.6 29.7 19.9 56 6.4 ESE 19 32 10 17 1010.2 1010.0 0.0
05/12:30pm 30.9 30.6 18.3 47 8.1 ESE 17 26 9 14 1010.2 1010.0 0.0
05/12:00pm 30.7 31.2 18.4 47 7.9 ENE 13 20 7 11 1010.1 1009.9 0.0
05/11:30am 30.3 32.5 21.1 58 6.2 ENE 11 19 6 10 1010.5 1010.3 0.0
05/11:00am 29.4 30.1 20.5 58 5.9 SE 17 26 9 14 1010.9 1010.7 0.0
05/10:30am 29.1 31.6 20.3 59 5.8 ENE 7 13 4 7 1011.0 1010.8 0.0
05/10:00am 28.2 31.4 21.7 68 4.4 SE 7 11 4 6 1011.1 1010.9 0.0
05/09:30am 25.6 28.8 21.7 79 2.6 S 7 11 4 6 1011.2 1011.0 0.0
05/09:00am 24.3 27.6 21.8 86 1.7 SSW 7 11 4 6 1011.5 1011.3 1.0
05/08:30am 22.4 25.5 21.4 94 0.7 WSW 7 11 4 6 1011.7 1011.5 1.0
05/08:19am 22.0 26.2 21.8 99 0.1 WNW 2 7 1 4 1011.7 1011.5 1.0
05/08:06am 21.2 25.0 21.0 99 0.1 S 2 9 1 5 1011.5 1011.3 1.0
05/08:00am 21.2 24.3 21.0 99 0.1 SE 6 9 3 5 1011.4 1011.2 1.0
05/07:31am 20.5 21.6 19.7 95 0.5 S 13 20 7 11 1012.3 1012.1 0.6
05/07:30am 20.5 21.6 19.7 95 0.5 S 13 22 7 12 1012.4 1012.2 0.6
05/07:00am 22.9 25.2 22.7 99 0.1 S 15 28 8 15 1012.9 1012.7 0.6
05/06:52am 23.0 26.6 23.0 100 0.0 SSE 9 15 5 8 1012.5 1012.3 0.6
05/06:30am 22.9 26.8 22.9 100 0.0 S 7 11 4 6 1012.0 1011.8 0.6
05/06:00am 22.3 26.0 22.3 100 0.0 SE 6 7 3 4 1011.5 1011.3 0.6
05/05:30am 22.0 25.6 22.0 100 0.0 SW 6 9 3 5 1011.1 1010.9 0.0
05/05:00am 21.8 26.4 21.8 100 0.0 CALM 0 0 0 0 1010.5 1010.3 0.0
05/04:30am 21.4 25.8 21.4 100 0.0 CALM 0 0 0 0 1010.0 1009.8 0.0
05/04:00am 21.2 25.5 21.2 100 0.0 CALM 0 0 0 0 1009.7 1009.5 0.0
05/03:30am 21.2 25.5 21.2 100 0.0 CALM 0 0 0 0 1009.8 1009.6 0.0
05/03:00am 21.1 25.4 21.1 100 0.0 CALM 0 0 0 0 1009.4 1009.2 0.0
05/02:30am 21.1 25.4 21.1 100 0.0 CALM 0 0 0 0 1009.2 1009.0 0.0
05/02:00am 21.3 24.5 21.3 100 0.0 SW 6 9 3 5 1009.1 1008.9 0.0
05/01:30am 21.2 25.5 21.2 100 0.0 CALM 0 0 0 0 1009.0 1008.8 0.0
05/01:00am 21.3 25.7 21.3 100 0.0 CALM 0 0 0 0 1009.3 1009.1 0.0
05/12:30am 21.3 25.7 21.3 100 0.0 CALM 0 0 0 0 1009.7 1009.5 0.0
05/12:00am 21.3 25.7 21.3 100 0.0 CALM 0 0 0 0 1010.1 1009.9 0.0
 
Date/Time
EST
Temp
°C
App
Temp
°C
Dew
Point
°C
Rel
Hum
%
Delta-T
°C
Wind Press
QNH
hPa
Press
MSL
hPa
Rain since
9am
mm
Dir  Spd
km/h
Gust
km/h
Spd
kts
Gust
kts
04/11:30pm 21.6 26.1 21.6 100 0.0 CALM 0 0 0 0 1010.4 1010.2 0.0
04/11:00pm 21.7 26.3 21.7 100 0.0 CALM 0 0 0 0 1010.8 1010.6 0.0
04/10:30pm 22.1 26.9 22.1 100 0.0 CALM 0 0 0 0 1011.1 1010.9 0.0
04/10:00pm 22.3 27.2 22.3 100 0.0 CALM 0 0 0 0 1011.1 1010.9 0.0
04/09:30pm 22.9 28.0 22.7 99 0.1 CALM 0 0 0 0 1010.9 1010.7 0.0
04/09:00pm 22.9 28.0 22.7 99 0.1 CALM 0 0 0 0 1010.6 1010.4 0.0
04/08:30pm 23.2 28.2 22.5 96 0.5 CALM 0 0 0 0 1010.4 1010.2 0.0
04/08:00pm 23.6 27.3 22.2 92 0.9 E 6 7 3 4 1010.5 1010.3 0.0
04/07:30pm 24.3 27.8 21.8 86 1.7 SE 6 7 3 4 1010.4 1010.2 0.0
04/07:00pm 24.8 28.0 21.7 83 2.1 ESE 7 9 4 5 1009.9 1009.7 0.0
04/06:30pm 25.4 27.8 21.5 79 2.6 E 11 15 6 8 1009.5 1009.3 0.0
04/06:00pm 26.4 28.0 20.7 71 3.8 E 13 17 7 9 1009.4 1009.2 0.0
04/05:30pm 27.4 28.6 20.0 64 4.8 E 13 20 7 11 1009.1 1008.9 0.0
04/05:00pm 28.5 29.6 19.7 59 5.8 SE 13 20 7 11 1009.0 1008.8 0.0
04/04:30pm 28.9 29.8 19.2 55 6.3 SE 13 19 7 10 1008.9 1008.7 0.0
04/04:00pm 29.1 29.3 19.4 55 6.3 ESE 17 24 9 13 1008.8 1008.6 0.0
04/03:30pm 29.2 30.1 19.2 54 6.5 SE 13 20 7 11 1009.0 1008.8 0.0
04/03:00pm 29.3 29.6 18.7 52 6.8 SE 15 26 8 14 1009.4 1009.2 0.0
04/02:30pm 29.4 29.9 20.0 57 6.2 ESE 17 24 9 13 1009.6 1009.4 0.0
04/02:00pm 29.9 30.3 19.9 55 6.6 ESE 17 28 9 15 1009.8 1009.6 0.0
04/01:30pm 29.1 28.7 18.8 53 6.6 SE 19 28 10 15 1010.2 1010.0 0.0
04/01:00pm 29.9 29.8 19.6 54 6.7 ESE 19 30 10 16 1010.4 1010.2 0.0
04/12:30pm 29.2 29.4 20.1 58 6.0 SSE 19 26 10 14 1010.6 1010.4 0.0
04/12:00pm 30.1 31.6 21.2 59 6.0 SE 15 26 8 14 1011.1 1010.9 0.0
04/11:30am 29.3 30.0 20.5 59 5.8 SSE 17 24 9 13 1011.5 1011.3 0.0
04/11:00am 29.1 29.6 21.1 62 5.3 SE 20 32 11 17 1012.0 1011.8 0.0

Other formats

Comma delimited format used in spreadsheet applications
http://www.bom.gov.au/fwo/IDQ60801/IDQ60801.94370.axf

JavaScript Object Notation format (JSON) in row-major order
http://www.bom.gov.au/fwo/IDQ60801/IDQ60801.94370.json

Data quality

Most of these data are generated automatically and are frequently updated. Quality checks on data are not normally performed. It is possible for incorrect values to appear. Refer to information at About Latest Weather Observations and please check the disclaimer before using these data.